Time;durP1;ratioP1;P1;durP2;ratioP2;P2;SDS_P1;SDS_P2;PMS_P1;PMS_P2;Temp;Humidity;BMP_temperature;BMP_pressure;BME280_temperature;BME280_humidity;BME280_pressure;Samples;Min_cycle;Max_cycle;Signal;HPM_P1;HPM_P2
2022/08/08 00:00:22;;;;;;;4.97;3.72;;;;;;;14.09;69.09;102373.13;5028213;28;20132;-67
2022/08/08 00:03:05;;;;;;;6.82;4.35;;;;;;;14.04;70.59;102364.31;5027671;28;20065;-67
2022/08/08 00:05:48;;;;;;;6.68;4.70;;;;;;;14.02;69.35;102364.41;5028844;28;20132;-66
2022/08/08 00:08:35;;;;;;;6.68;4.30;;;;;;;13.93;69.46;102367.72;5043598;28;20510;-66
2022/08/08 00:11:26;;;;;;;6.88;4.47;;;;;;;13.85;71.15;102363.69;5047334;28;20075;-66
2022/08/08 00:14:03;;;;;;;6.22;4.50;;;;;;;13.76;71.01;102371.50;5033670;28;20048;-66
2022/08/08 00:16:38;;;;;;;7.85;5.05;;;;;;;13.71;72.18;102364.56;5030896;28;20094;-67
2022/08/08 00:19:28;;;;;;;6.65;4.95;;;;;;;13.73;70.94;102370.81;5042475;28;20029;-65
2022/08/08 00:22:02;;;;;;;5.65;4.38;;;;;;;13.68;71.65;102362.88;5028092;28;20067;-65
2022/08/08 00:24:35;;;;;;;5.45;3.97;;;;;;;13.64;70.80;102374.09;5028372;28;20040;-67
2022/08/08 00:27:07;;;;;;;7.28;4.32;;;;;;;13.65;70.29;102376.72;5027871;28;20152;-66
2022/08/08 00:29:47;;;;;;;9.73;5.13;;;;;;;13.63;71.14;102375.97;5043042;28;20041;-67
2022/08/08 00:32:18;;;;;;;7.03;4.22;;;;;;;13.62;70.78;102376.06;5027534;28;20038;-66
2022/08/08 00:35:21;;;;;;;7.80;4.72;;;;;;;13.63;69.80;102381.44;5032258;28;20500;-67
2022/08/08 00:38:09;;;;;;;6.90;4.82;;;;;;;13.61;70.19;102379.75;5043137;28;20053;-67
2022/08/08 00:40:37;;;;;;;4.80;3.97;;;;;;;13.53;70.99;102381.13;5028056;28;20052;-66
2022/08/08 00:43:42;;;;;;;8.18;5.90;;;;;;;13.55;70.74;102377.41;5027467;28;20057;-67
2022/08/08 00:46:29;;;;;;;10.45;5.80;;;;;;;13.46;72.14;102382.44;5026555;28;20030;-67
2022/08/08 00:49:25;;;;;;;6.50;5.00;;;;;;;13.41;71.78;102376.38;5025508;28;20055;-67
2022/08/08 00:51:56;;;;;;;8.75;6.18;;;;;;;13.36;72.46;102373.03;5026244;28;20030;-66
2022/08/08 00:54:52;;;;;;;8.43;5.75;;;;;;;13.33;72.39;102367.75;5027582;28;20098;-67
2022/08/08 00:57:55;;;;;;;15.25;6.63;;;;;;;13.31;72.44;102366.97;5042886;28;20068;-66
2022/08/08 01:00:28;;;;;;;8.32;5.20;;;;;;;13.23;72.71;102367.41;5027995;28;20398;-66
2022/08/08 01:03:31;;;;;;;11.60;6.40;;;;;;;13.18;73.26;102366.78;5026713;28;20033;-66
2022/08/08 01:06:17;;;;;;;8.20;5.50;;;;;;;13.13;72.96;102362.56;5026076;28;20070;-66
2022/08/08 01:09:23;;;;;;;7.63;5.18;;;;;;;13.12;71.13;102361.66;5025720;28;20037;-66
2022/08/08 01:12:13;;;;;;;7.93;5.25;;;;;;;13.10;71.71;102363.59;5042577;28;20061;-66
2022/08/08 01:15:21;;;;;;;9.27;5.40;;;;;;;13.11;72.63;102359.03;5034731;28;20032;-66
2022/08/08 01:17:59;;;;;;;8.23;5.00;;;;;;;13.10;71.80;102360.00;5025545;28;20503;-65
2022/08/08 01:20:48;;;;;;;8.35;5.63;;;;;;;13.07;71.88;102363.78;5042207;28;20041;-68
2022/08/08 01:23:45;;;;;;;7.80;5.60;;;;;;;13.03;72.05;102359.47;5009710;28;20105;-67
2022/08/08 01:26:33;;;;;;;7.60;5.88;;;;;;;12.97;72.28;102359.84;5025543;28;20076;-67
2022/08/08 01:29:26;;;;;;;7.95;5.18;;;;;;;12.93;72.28;102355.53;5042633;28;20037;-66
2022/08/08 01:32:20;;;;;;;7.55;5.18;;;;;;;12.91;72.41;102355.59;5040374;28;20030;-67
2022/08/08 01:35:19;;;;;;;7.20;5.45;;;;;;;12.91;71.98;102355.59;5042056;28;20038;-66
2022/08/08 01:38:24;;;;;;;8.70;6.25;;;;;;;12.83;73.53;102355.19;5042312;28;20053;-67
2022/08/08 01:41:28;;;;;;;7.60;5.72;;;;;;;12.82;72.00;102360.72;5042330;28;20034;-66
2022/08/08 01:44:16;;;;;;;10.07;5.90;;;;;;;12.80;72.94;102360.81;5034472;28;20097;-67
2022/08/08 01:47:29;;;;;;;9.77;6.00;;;;;;;12.81;72.02;102361.69;5040766;28;20832;-66
2022/08/08 01:50:11;;;;;;;9.70;5.60;;;;;;;12.75;72.32;102355.63;5026813;28;20041;-67
2022/08/08 01:52:56;;;;;;;8.27;6.03;;;;;;;12.72;72.80;102354.91;5027440;28;20037;-66
2022/08/08 01:55:51;;;;;;;7.95;5.93;;;;;;;12.71;72.50;102358.59;5008683;28;20434;-67
2022/08/08 01:58:49;;;;;;;9.70;5.65;;;;;;;12.70;72.20;102363.19;5042322;28;20037;-66
2022/08/08 02:01:36;;;;;;;12.40;7.07;;;;;;;12.65;73.01;102361.69;5041134;28;20378;-66
2022/08/08 02:04:12;;;;;;;8.77;6.32;;;;;;;12.63;72.75;102366.34;5025742;28;20389;-66
2022/08/08 02:06:46;;;;;;;12.05;7.03;;;;;;;12.65;74.00;102364.44;5027203;28;20041;-70
2022/08/08 02:09:40;;;;;;;10.13;7.25;;;;;;;12.64;72.91;102363.56;5041991;28;20037;-67
2022/08/08 02:12:14;;;;;;;14.95;7.47;;;;;;;12.62;73.63;102357.28;5040040;28;20096;-70
2022/08/08 02:15:08;;;;;;;11.18;7.20;;;;;;;12.60;74.15;102359.22;5035939;28;20037;-66
2022/08/08 02:18:12;;;;;;;11.32;7.82;;;;;;;12.59;74.14;102364.75;5041040;28;20042;-66
2022/08/08 02:24:12;;;;;;;8.93;6.68;;;;;;;12.50;73.56;102358.00;5045763;28;20041;-66
2022/08/08 02:26:49;;;;;;;9.70;5.95;;;;;;;12.49;73.50;102358.94;5046138;28;20519;-66
2022/08/08 02:29:55;;;;;;;12.95;7.35;;;;;;;12.50;74.04;102360.72;5028926;28;20055;-67
2022/08/08 02:32:47;;;;;;;10.02;7.07;;;;;;;12.49;74.01;102361.66;5014743;28;20400;-66
2022/08/08 02:35:41;;;;;;;9.10;6.50;;;;;;;12.46;73.40;102372.78;5028505;28;20069;-66
2022/08/08 02:38:29;;;;;;;9.05;6.22;;;;;;;12.41;73.09;102364.84;5029005;28;20037;-67
2022/08/08 02:41:40;;;;;;;8.32;5.95;;;;;;;12.36;72.74;102357.88;5028300;28;20021;-69
2022/08/08 02:44:06;;;;;;;9.23;6.22;;;;;;;12.30;73.22;102350.03;5034286;28;20378;-67
2022/08/08 02:46:43;;;;;;;8.40;6.57;;;;;;;12.29;73.83;102354.59;5043970;28;20041;-67
2022/08/08 02:49:40;;;;;;;12.55;6.97;;;;;;;12.29;73.96;102351.88;5038494;28;20191;-66
2022/08/08 02:52:18;;;;;;;9.40;6.47;;;;;;;12.24;73.86;102353.97;5028051;28;20029;-66
2022/08/08 02:55:25;;;;;;;14.10;8.10;;;;;;;12.18;75.12;102366.13;5029654;28;20146;-68
2022/08/08 02:58:43;;;;;;;8.75;6.60;;;;;;;12.16;74.11;102364.41;5028515;28;20071;-67
2022/08/08 03:01:46;;;;;;;12.82;8.05;;;;;;;12.16;74.93;102365.31;5041939;28;20076;-66
2022/08/08 03:04:48;;;;;;;12.95;7.22;;;;;;;12.16;74.45;102370.75;5041672;28;20464;-70
2022/08/08 03:07:23;;;;;;;11.60;8.15;;;;;;;12.15;74.75;102369.00;5047988;28;20025;-66
2022/08/08 03:10:32;;;;;;;12.10;8.27;;;;;;;12.15;75.18;102371.72;5044597;28;20482;-67
2022/08/08 03:13:37;;;;;;;13.25;8.20;;;;;;;12.12;75.80;102360.97;5028241;28;20156;-67
2022/08/08 03:16:03;;;;;;;11.93;7.90;;;;;;;12.07;75.90;102368.53;5027769;28;20025;-66
2022/08/08 03:18:47;;;;;;;12.73;7.80;;;;;;;12.09;75.15;102369.34;5039377;28;20112;-66
2022/08/08 03:21:13;;;;;;;13.48;8.40;;;;;;;12.03;77.31;102368.78;5027851;28;20516;-67
2022/08/08 03:23:38;;;;;;;11.90;8.10;;;;;;;12.02;76.72;102372.47;5047124;28;20032;-67
2022/08/08 03:26:04;;;;;;;15.40;8.70;;;;;;;12.02;76.30;102375.22;5049301;28;20040;-66
2022/08/08 03:28:36;;;;;;;14.30;9.52;;;;;;;11.96;77.54;102374.56;5047571;28;20036;-66
2022/08/08 03:33:16;;;;;;;14.02;7.90;;;;;;;11.93;76.27;102377.47;5050109;28;20083;-66
2022/08/08 03:33:48;;;;;;;16.73;9.20;;;;;;;11.91;76.93;102371.22;5025805;28;20073;-67
2022/08/08 03:36:14;;;;;;;12.80;7.95;;;;;;;11.89;76.75;102378.63;5027429;28;20060;-67
2022/08/08 03:38:39;;;;;;;11.68;8.38;;;;;;;11.87;76.09;102380.53;5027799;28;20068;-66
2022/08/08 03:41:05;;;;;;;13.45;9.68;;;;;;;11.87;77.58;102379.66;5027656;28;20113;-66
2022/08/08 03:43:30;;;;;;;16.38;9.18;;;;;;;11.88;77.61;102379.56;5043560;28;20374;-66
2022/08/08 03:46:05;;;;;;;14.85;9.00;;;;;;;11.87;76.28;102377.78;5036232;28;20116;-67
2022/08/08 03:48:31;;;;;;;12.73;8.75;;;;;;;11.86;77.40;102386.94;5040803;28;20479;-66
2022/08/08 03:50:57;;;;;;;15.15;8.18;;;;;;;11.84;75.35;102385.25;5028745;28;20034;-66
2022/08/08 03:53:24;;;;;;;12.85;9.38;;;;;;;11.79;76.35;102380.00;5027136;28;20148;-66
2022/08/08 03:55:50;;;;;;;15.27;9.65;;;;;;;11.77;76.47;102379.22;5029112;28;20033;-66
2022/08/08 03:58:22;;;;;;;16.10;10.05;;;;;;;11.72;78.61;102381.31;5027422;28;20034;-67
2022/08/08 04:01:07;;;;;;;13.20;8.73;;;;;;;11.66;76.46;102387.09;5036012;28;20369;-67
2022/08/08 04:03:37;;;;;;;15.07;8.73;;;;;;;11.66;76.33;102390.69;5027295;28;20036;-66
2022/08/08 04:06:06;;;;;;;15.90;8.68;;;;;;;11.64;76.13;102387.16;5026529;28;20116;-66
2022/08/08 04:08:35;;;;;;;12.98;9.27;;;;;;;11.66;76.05;102393.44;5043590;28;20033;-66
2022/08/08 04:11:06;;;;;;;10.73;7.78;;;;;;;11.67;76.84;102391.56;5043740;28;20033;-65
2022/08/08 04:13:33;;;;;;;15.13;9.40;;;;;;;11.67;76.95;102394.31;5043115;28;20060;-67
2022/08/08 04:16:00;;;;;;;13.65;8.18;;;;;;;11.68;76.68;102398.78;5029299;28;20043;-65
2022/08/08 04:18:26;;;;;;;12.98;8.40;;;;;;;11.69;76.84;102398.69;5037903;28;20040;-66
2022/08/08 04:20:51;;;;;;;12.93;7.85;;;;;;;11.66;77.09;102392.53;5046062;28;20096;-66
2022/08/08 04:23:17;;;;;;;14.07;8.68;;;;;;;11.68;76.87;102396.94;5043060;28;20115;-66
2022/08/08 04:25:44;;;;;;;11.63;7.03;;;;;;;11.68;76.13;102390.59;5045927;28;20047;-67
2022/08/08 04:28:10;;;;;;;14.50;7.97;;;;;;;11.66;76.59;102396.16;5045349;28;20031;-66
2022/08/08 04:30:35;;;;;;;13.25;9.18;;;;;;;11.64;77.79;102392.59;5042959;28;20431;-67
2022/08/08 04:33:01;;;;;;;11.43;7.25;;;;;;;11.64;76.12;102392.59;5041800;28;20025;-66
2022/08/08 04:35:29;;;;;;;13.68;7.88;;;;;;;11.66;76.01;102398.00;5043871;28;20112;-66
2022/08/08 04:37:55;;;;;;;11.23;7.38;;;;;;;11.67;76.00;102399.75;5047273;28;20104;-67
2022/08/08 04:40:25;;;;;;;11.40;8.20;;;;;;;11.67;76.58;102405.22;5044541;28;20095;-65
2022/08/08 04:42:55;;;;;;;14.20;8.68;;;;;;;11.66;76.68;102409.78;5045906;28;20039;-66
2022/08/08 04:45:20;;;;;;;16.63;8.70;;;;;;;11.66;76.53;102411.63;5042278;28;20449;-67
2022/08/08 04:47:46;;;;;;;16.27;8.45;;;;;;;11.66;75.81;102409.78;5040499;28;20032;-65
2022/08/08 04:50:12;;;;;;;14.50;8.95;;;;;;;11.67;78.04;102424.28;5059183;28;20033;-66
2022/08/08 04:52:38;;;;;;;13.80;9.48;;;;;;;11.68;78.24;102421.47;5045918;28;20025;-67
2022/08/08 04:55:10;;;;;;;12.70;8.23;;;;;;;11.73;76.65;102427.56;5043401;28;20086;-68
2022/08/08 04:57:36;;;;;;;10.02;7.68;;;;;;;11.78;76.51;102431.91;5046914;28;20454;-67
2022/08/08 05:00:05;;;;;;;11.05;7.70;;;;;;;11.83;76.54;102432.56;5043067;28;20425;-66
2022/08/08 05:02:31;;;;;;;15.32;8.98;;;;;;;11.85;77.49;102434.28;5056369;28;20116;-68
2022/08/08 05:04:56;;;;;;;16.42;8.95;;;;;;;11.88;76.93;102435.94;5041979;28;20579;-70
2022/08/08 05:07:22;;;;;;;17.10;8.45;;;;;;;11.89;77.45;102440.44;5043803;28;20361;-66
2022/08/08 05:09:47;;;;;;;15.95;7.97;;;;;;;11.92;76.50;102437.56;5043923;28;20072;-68
2022/08/08 05:12:12;;;;;;;13.77;8.27;;;;;;;11.93;76.21;102444.75;5045322;28;20039;-66
2022/08/08 05:14:38;;;;;;;16.92;10.57;;;;;;;11.93;78.26;102442.91;5044701;28;20087;-69
2022/08/08 05:17:06;;;;;;;17.90;9.05;;;;;;;11.98;77.90;102445.41;5039459;28;20388;-67
2022/08/08 05:19:34;;;;;;;14.00;8.50;;;;;;;12.02;77.98;102446.13;5041381;28;20111;-66
2022/08/08 05:22:00;;;;;;;12.60;8.05;;;;;;;12.08;77.44;102448.56;5043485;28;20017;-65
2022/08/08 05:24:27;;;;;;;16.17;10.27;;;;;;;12.19;79.32;102457.91;5062008;28;20139;-67
2022/08/08 05:26:52;;;;;;;13.23;9.20;;;;;;;12.24;78.75;102457.66;5045238;28;20035;-67
2022/08/08 05:29:18;;;;;;;11.90;8.20;;;;;;;12.30;77.41;102449.13;5044106;28;20064;-66
2022/08/08 05:31:44;;;;;;;15.38;10.00;;;;;;;12.33;79.35;102445.38;5040299;28;20032;-66
2022/08/08 05:34:24;;;;;;;15.60;9.20;;;;;;;12.35;79.40;102446.16;5043734;28;20408;-67
2022/08/08 05:36:52;;;;;;;13.13;9.88;;;;;;;12.40;80.45;102446.78;5044891;28;20025;-67
2022/08/08 05:39:21;;;;;;;13.13;9.65;;;;;;;12.46;78.49;102436.44;5040645;28;22488;-67
2022/08/08 05:41:49;;;;;;;12.63;9.60;;;;;;;12.53;79.33;102442.44;5061430;28;20074;-66
2022/08/08 05:44:20;;;;;;;19.55;11.27;;;;;;;12.61;81.13;102455.66;5045094;28;20040;-68
2022/08/08 05:46:48;;;;;;;15.82;9.95;;;;;;;12.65;81.00;102452.69;5044073;28;20036;-66
2022/08/08 05:49:15;;;;;;;16.88;9.95;;;;;;;12.71;80.11;102457.78;5042556;28;20052;-66
2022/08/08 05:51:43;;;;;;;14.10;10.38;;;;;;;12.75;82.51;102456.66;5044690;28;20130;-66
2022/08/08 05:54:09;;;;;;;18.27;11.30;;;;;;;12.85;81.73;102454.28;5058123;28;20033;-66
2022/08/08 05:56:40;;;;;;;18.27;11.95;;;;;;;12.96;84.13;102457.31;5046684;28;20033;-66
2022/08/08 05:59:12;;;;;;;20.45;12.73;;;;;;;13.08;84.56;102457.56;5048255;28;20039;-66
2022/08/08 06:01:41;;;;;;;19.90;14.25;;;;;;;13.20;86.14;102457.75;5062584;28;20024;-67
2022/08/08 06:04:10;;;;;;;23.63;14.07;;;;;;;13.30;86.45;102457.28;5044226;28;20055;-66
2022/08/08 06:06:38;;;;;;;21.90;14.40;;;;;;;13.41;86.56;102458.38;5049876;28;20466;-66
2022/08/08 06:09:04;;;;;;;21.63;13.85;;;;;;;13.51;85.78;102462.34;5048259;28;20048;-67
2022/08/08 06:11:31;;;;;;;25.38;14.65;;;;;;;13.61;86.35;102459.94;5045816;28;20029;-67
2022/08/08 06:13:58;;;;;;;26.13;13.15;;;;;;;13.70;85.98;102466.72;5045655;28;20473;-67
2022/08/08 06:16:25;;;;;;;21.40;13.07;;;;;;;13.79;86.44;102460.69;5043904;28;20037;-66
2022/08/08 06:19:15;;;;;;;23.08;14.75;;;;;;;13.87;86.12;102463.84;5045481;28;20397;-67
2022/08/08 06:21:47;;;;;;;19.15;12.80;;;;;;;13.95;85.55;102472.50;5029294;28;20426;-67
2022/08/08 06:24:13;;;;;;;25.90;13.30;;;;;;;14.04;85.34;102479.25;5029112;28;20037;-67
2022/08/08 06:26:49;;;;;;;23.13;14.10;;;;;;;14.13;85.72;102473.22;5029468;28;20071;-70
2022/08/08 06:29:17;;;;;;;;;;;;;;;14.25;82.06;102482.53;5030703;28;20042;-67
2022/08/08 06:31:44;;;;;;;21.60;12.93;;;;;;;14.39;84.00;102478.94;5029839;28;19963;-66
2022/08/08 06:34:16;;;;;;;20.23;12.10;;;;;;;14.46;84.65;102483.06;5030488;28;20029;-67
2022/08/08 06:36:43;;;;;;;19.27;12.50;;;;;;;14.53;84.41;102493.56;5028949;28;20034;-69
2022/08/08 06:39:11;;;;;;;21.10;12.73;;;;;;;14.64;83.88;102492.00;5029071;28;20462;-67
2022/08/08 06:41:48;;;;;;;16.52;11.30;;;;;;;14.73;84.12;102492.28;5049358;28;20052;-66
2022/08/08 06:44:17;;;;;;;16.98;10.60;;;;;;;14.76;81.78;102483.88;5048892;28;20523;-68
2022/08/08 06:46:43;;;;;;;18.05;11.63;;;;;;;14.85;84.35;102493.38;5044403;28;20029;-67
2022/08/08 06:49:10;;;;;;;19.60;12.00;;;;;;;14.96;83.96;102492.66;5028583;28;20021;-67
2022/08/08 06:51:36;;;;;;;15.75;10.90;;;;;;;15.10;83.54;102489.03;5029848;28;20092;-67
2022/08/08 06:54:02;;;;;;;19.65;10.23;;;;;;;15.18;82.04;102493.03;5028357;28;20029;-67
2022/08/08 06:56:34;;;;;;;14.95;9.60;;;;;;;15.32;81.79;102487.53;5013005;28;20164;-68
2022/08/08 06:59:01;;;;;;;15.10;9.95;;;;;;;15.44;82.00;102490.44;5045326;28;20037;-67
2022/08/08 07:01:35;;;;;;;13.55;9.07;;;;;;;15.54;81.08;102492.47;5032716;28;20028;-68
2022/08/08 07:04:23;;;;;;;16.98;8.93;;;;;;;15.68;80.02;102490.69;5044183;28;20114;-68
2022/08/08 07:06:55;;;;;;;20.48;8.77;;;;;;;15.76;80.17;102493.78;5032693;28;20071;-67
2022/08/08 07:09:27;;;;;;;18.45;7.90;;;;;;;15.86;79.67;102492.19;5031445;28;20170;-66
2022/08/08 07:11:57;;;;;;;18.00;8.00;;;;;;;15.95;79.81;102488.81;5045892;28;20033;-68
2022/08/08 07:14:53;;;;;;;19.23;7.13;;;;;;;16.06;79.28;102497.19;5052943;28;20033;-67
2022/08/08 07:17:23;;;;;;;9.95;6.03;;;;;;;16.22;78.15;102501.59;5027646;28;20098;-69
2022/08/08 07:20:06;;;;;;;17.20;5.70;;;;;;;16.34;77.24;102498.00;5044556;28;20081;-68
2022/08/08 07:23:00;;;;;;;11.13;4.88;;;;;;;16.44;74.96;102503.72;5028240;28;20113;-66
2022/08/08 07:25:26;;;;;;;9.90;4.45;;;;;;;16.57;74.28;102504.59;5027898;28;20037;-66
2022/08/08 07:28:05;;;;;;;5.75;4.30;;;;;;;16.69;73.37;102513.81;5027933;28;20088;-66
2022/08/08 07:30:31;;;;;;;7.50;4.28;;;;;;;16.75;72.28;102508.81;5041478;28;20743;-67
2022/08/08 07:32:58;;;;;;;7.18;4.53;;;;;;;16.83;72.40;102505.50;5044494;28;20045;-66
2022/08/08 07:35:25;;;;;;;10.50;4.28;;;;;;;16.89;72.53;102507.81;5045096;28;20600;-67
2022/08/08 07:37:51;;;;;;;10.15;5.03;;;;;;;16.94;73.19;102515.75;5064490;28;20456;-67
2022/08/08 07:40:23;;;;;;;10.25;4.65;;;;;;;17.01;71.92;102511.53;5036082;28;20091;-66
2022/08/08 07:42:51;;;;;;;10.48;4.78;;;;;;;17.09;72.28;102515.47;5046149;28;20033;-67
2022/08/08 07:45:16;;;;;;;54.47;6.82;;;;;;;17.15;72.63;102514.16;5040520;28;20431;-68
2022/08/08 07:47:43;;;;;;;10.30;4.30;;;;;;;17.23;71.45;102513.59;5045503;28;20029;-68
2022/08/08 07:50:10;;;;;;;8.02;3.90;;;;;;;17.29;72.78;102504.88;5027742;28;20033;-66
2022/08/08 07:52:40;;;;;;;6.65;4.38;;;;;;;17.39;73.46;102507.81;5027815;28;20041;-66
2022/08/08 07:55:08;;;;;;;10.88;4.18;;;;;;;17.48;72.95;102508.00;5027190;28;20025;-65
2022/08/08 07:57:42;;;;;;;6.30;3.80;;;;;;;17.55;72.14;102512.06;5026979;28;20136;-68
2022/08/08 08:00:11;;;;;;;9.90;3.90;;;;;;;17.74;72.85;102514.34;5044390;28;20024;-68
2022/08/08 08:03:05;;;;;;;;;;;;;;;17.93;71.40;102516.56;5027611;28;20037;-66
2022/08/08 08:05:37;;;;;;;5.38;3.00;;;;;;;18.35;68.44;102523.34;5042411;28;20435;-67
2022/08/08 08:08:07;;;;;;;5.72;3.50;;;;;;;18.67;66.63;102522.69;5027171;28;20492;-67
2022/08/08 08:10:37;;;;;;;;;;;;;;;18.98;69.32;102526.63;5027337;28;20039;-67
2022/08/08 08:13:19;;;;;;;5.32;3.13;;;;;;;19.66;64.17;102515.53;5027314;28;20030;-66
2022/08/08 08:16:02;;;;;;;4.67;2.73;;;;;;;19.97;64.15;102519.34;5038284;28;20048;-67
2022/08/08 08:18:36;;;;;;;5.18;2.60;;;;;;;20.25;60.97;102523.38;5026405;28;20056;-67
2022/08/08 08:21:02;;;;;;;8.68;3.03;;;;;;;20.46;61.77;102520.59;5043384;28;20492;-67
2022/08/08 08:23:28;;;;;;;7.63;2.90;;;;;;;20.61;59.35;102528.47;5043699;28;20556;-67
2022/08/08 08:25:54;;;;;;;7.13;2.60;;;;;;;20.55;58.77;102525.34;5042215;28;20029;-66
2022/08/08 08:28:21;;;;;;;4.68;2.50;;;;;;;20.44;60.44;102530.94;5026986;28;20103;-67
2022/08/08 08:30:46;;;;;;;7.10;2.63;;;;;;;20.52;58.43;102529.28;5042286;28;20845;-67
2022/08/08 08:33:12;;;;;;;3.60;1.95;;;;;;;20.78;58.48;102528.84;5041907;28;20067;-68
2022/08/08 08:35:38;;;;;;;4.53;1.85;;;;;;;21.41;58.44;102523.22;5043543;28;20392;-67
2022/08/08 08:38:04;;;;;;;4.57;2.10;;;;;;;21.69;56.23;102524.31;5043326;28;20500;-66
2022/08/08 08:40:31;;;;;;;5.68;1.92;;;;;;;21.94;53.89;102534.81;5043310;28;20037;-67
2022/08/08 08:42:58;;;;;;;5.03;2.55;;;;;;;22.02;53.99;102534.13;5043498;28;20461;-68
2022/08/08 08:45:26;;;;;;;6.20;2.22;;;;;;;22.73;54.63;102537.44;5036813;28;20049;-67
2022/08/08 08:47:55;;;;;;;7.60;2.53;;;;;;;22.46;50.48;102537.34;5026156;28;20037;-67
2022/08/08 08:50:23;;;;;;;2.75;1.73;;;;;;;22.28;52.64;102539.97;5026129;28;20397;-68
2022/08/08 08:52:49;;;;;;;5.88;2.08;;;;;;;22.16;53.45;102536.47;5035470;28;20076;-68
2022/08/08 08:55:18;;;;;;;6.60;2.08;;;;;;;22.26;53.01;102540.13;5025627;28;20647;-68
2022/08/08 08:57:47;;;;;;;4.93;2.03;;;;;;;22.87;53.25;102547.19;5027904;28;20104;-67
2022/08/08 09:00:13;;;;;;;5.20;2.17;;;;;;;22.84;51.76;102541.94;5027703;28;20483;-66
2022/08/08 09:02:41;;;;;;;4.18;2.10;;;;;;;23.12;52.15;102538.22;5026720;28;20029;-69
2022/08/08 09:05:08;;;;;;;6.32;2.10;;;;;;;23.13;49.14;102541.88;5026080;28;20640;-66
2022/08/08 09:07:35;;;;;;;5.60;1.85;;;;;;;22.97;48.78;102541.63;5025350;28;20133;-66
2022/08/08 09:10:03;;;;;;;5.25;2.28;;;;;;;22.77;49.32;102543.56;5037436;28;20037;-67
2022/08/08 09:12:37;;;;;;;6.40;1.92;;;;;;;23.10;49.76;102545.84;5025602;28;20573;-67
2022/08/08 09:15:03;;;;;;;4.75;2.20;;;;;;;22.65;49.45;102543.72;5041012;28;20100;-67
2022/08/08 09:17:35;;;;;;;6.18;2.42;;;;;;;22.38;51.95;102540.84;5045022;28;20026;-69
2022/08/08 09:20:01;;;;;;;7.78;2.80;;;;;;;23.05;51.16;102537.09;5019629;28;20057;-66
2022/08/08 09:22:27;;;;;;;4.00;1.90;;;;;;;23.51;50.37;102531.63;5042682;28;20488;-68
2022/08/08 09:24:54;;;;;;;2.17;1.55;;;;;;;23.66;50.16;102544.84;5042432;28;20671;-66
2022/08/08 09:27:21;;;;;;;3.72;1.80;;;;;;;23.85;47.48;102535.50;5042766;28;20029;-67
2022/08/08 09:30:00;;;;;;;5.68;1.90;;;;;;;24.27;50.25;102542.38;5029930;28;20504;-69
2022/08/08 09:32:36;;;;;;;3.85;1.90;;;;;;;24.23;47.56;102536.25;5027372;28;20065;-66
2022/08/08 09:35:06;;;;;;;5.18;1.80;;;;;;;23.85;46.14;102540.19;5042015;28;20083;-66
2022/08/08 09:37:42;;;;;;;3.15;1.35;;;;;;;24.11;48.90;102538.41;5027459;28;20489;-67
2022/08/08 09:40:10;;;;;;;2.85;1.52;;;;;;;24.22;48.52;102537.28;5036949;28;20073;-68
2022/08/08 09:42:44;;;;;;;4.03;1.90;;;;;;;24.50;47.72;102529.72;5026123;28;20053;-68
2022/08/08 09:45:32;;;;;;;5.63;1.80;;;;;;;25.01;47.76;102529.91;5038348;28;20452;-66
2022/08/08 09:48:02;;;;;;;4.38;1.90;;;;;;;25.59;47.89;102534.75;5026838;28;20049;-66
2022/08/08 09:50:29;;;;;;;3.42;1.55;;;;;;;26.01;45.43;102533.84;5027350;28;20037;-65
2022/08/08 09:52:56;;;;;;;4.07;2.00;;;;;;;25.84;42.51;102533.81;5027214;28;20048;-68
2022/08/08 09:55:21;;;;;;;4.15;1.73;;;;;;;25.72;44.27;102523.13;5026808;28;20037;-66
2022/08/08 09:57:50;;;;;;;3.58;1.40;;;;;;;26.13;46.90;102536.13;5027462;28;20034;-68
2022/08/08 10:00:20;;;;;;;5.75;1.90;;;;;;;25.83;42.74;102534.84;5026898;28;20037;-66
2022/08/08 10:02:48;;;;;;;5.13;1.70;;;;;;;25.24;44.45;102533.91;5026803;28;20461;-66
2022/08/08 10:05:18;;;;;;;5.10;2.15;;;;;;;24.84;46.88;102529.78;5030540;28;20473;-66
2022/08/08 10:07:50;;;;;;;4.47;1.63;;;;;;;25.32;48.99;102530.25;5042411;28;20175;-66
2022/08/08 10:10:37;;;;;;;6.13;1.83;;;;;;;25.87;45.43;102535.38;5026484;28;20712;-66
2022/08/08 10:13:23;;;;;;;3.97;1.60;;;;;;;26.20;44.46;102528.78;5027177;28;20049;-65
2022/08/08 10:15:52;;;;;;;6.22;1.98;;;;;;;26.13;41.44;102533.34;5038113;28;20041;-67
2022/08/08 10:18:25;;;;;;;3.03;1.40;;;;;;;25.94;40.25;102531.75;5026747;28;20473;-68
2022/08/08 10:20:55;;;;;;;2.50;1.40;;;;;;;25.82;43.29;102535.03;5027111;28;20681;-66
2022/08/08 10:23:48;;;;;;;2.15;1.45;;;;;;;26.15;44.70;102533.16;5027055;28;20673;-66
2022/08/08 10:26:19;;;;;;;2.20;1.10;;;;;;;26.01;40.91;102531.03;5027068;28;20116;-66
2022/08/08 10:28:55;;;;;;;2.92;1.33;;;;;;;25.64;44.57;102530.41;5027125;28;20432;-67
2022/08/08 10:34:25;;;;;;;3.90;1.75;;;;;;;25.43;42.63;102527.19;5032347;28;20033;-67
2022/08/08 10:36:51;;;;;;;3.35;1.48;;;;;;;25.91;44.04;102523.72;5026543;28;20076;-65
2022/08/08 10:39:22;;;;;;;2.30;1.13;;;;;;;26.40;42.53;102520.97;5025253;28;20111;-66
2022/08/08 10:41:56;;;;;;;3.72;1.48;;;;;;;26.16;42.59;102527.44;5027049;28;20132;-66
2022/08/08 10:44:35;;;;;;;4.68;1.50;;;;;;;25.60;42.46;102522.53;5036629;28;20488;-66
2022/08/08 10:47:19;;;;;;;7.75;1.70;;;;;;;25.64;44.49;102523.94;5031966;28;20037;-68
2022/08/08 10:49:53;;;;;;;4.53;1.50;;;;;;;25.72;41.84;102523.97;5044141;28;20102;-65
2022/08/08 10:52:23;;;;;;;2.88;1.50;;;;;;;25.64;41.85;102521.16;5050257;28;20037;-66
2022/08/08 10:54:57;;;;;;;3.63;1.60;;;;;;;25.20;41.86;102524.13;5044679;28;20132;-65
2022/08/08 10:57:23;;;;;;;3.72;1.15;;;;;;;24.75;43.30;102516.84;5042238;28;20466;-66
2022/08/08 10:59:53;;;;;;;4.93;1.30;;;;;;;24.51;43.95;102519.47;5044732;28;20029;-66
2022/08/08 11:02:32;;;;;;;3.10;1.20;;;;;;;24.48;44.26;102525.34;5030494;28;20033;-66
2022/08/08 11:04:59;;;;;;;4.53;1.20;;;;;;;24.52;41.71;102521.22;5029620;28;20037;-66
2022/08/08 11:07:27;;;;;;;4.22;1.23;;;;;;;25.02;43.28;102510.25;5029950;28;20030;-66
2022/08/08 11:09:53;;;;;;;4.25;1.25;;;;;;;25.18;40.75;102517.84;5029114;28;20166;-68
2022/08/08 11:12:18;;;;;;;1.10;1.00;;;;;;;25.26;40.92;102522.59;5030188;28;20450;-65
2022/08/08 11:14:55;;;;;;;2.17;0.85;;;;;;;25.43;42.56;102504.91;5041066;28;20033;-67
2022/08/08 11:17:26;;;;;;;2.25;1.48;;;;;;;25.37;39.91;102512.03;5029886;28;20095;-67
2022/08/08 11:19:52;;;;;;;2.53;1.25;;;;;;;25.10;41.67;102513.13;5029362;28;20033;-66
2022/08/08 11:22:24;;;;;;;6.72;1.30;;;;;;;24.99;43.02;102509.69;5029802;28;20033;-66
2022/08/08 11:24:50;;;;;;;2.85;1.02;;;;;;;25.06;42.23;102502.44;5034704;28;20037;-67
2022/08/08 11:27:16;;;;;;;3.15;1.10;;;;;;;24.68;42.78;102507.44;5049703;28;20048;-66
2022/08/08 11:29:43;;;;;;;1.83;1.13;;;;;;;24.65;42.34;102504.97;5036971;28;20481;-67
2022/08/08 11:32:11;;;;;;;1.55;1.20;;;;;;;24.73;42.72;102501.38;5028725;28;20091;-66
2022/08/08 11:34:38;;;;;;;20.10;1.67;;;;;;;25.03;43.11;102502.75;5029127;28;20075;-66
2022/08/08 11:37:05;;;;;;;2.17;1.15;;;;;;;25.65;42.84;102495.06;5029295;28;20505;-67
2022/08/08 11:39:31;;;;;;;2.08;1.05;;;;;;;26.28;42.24;102501.97;5035644;28;20402;-65
2022/08/08 11:41:57;;;;;;;4.43;1.33;;;;;;;26.40;41.13;102501.44;5048333;28;20043;-68
2022/08/08 11:44:23;;;;;;;2.40;0.98;;;;;;;25.60;37.81;102489.09;5046456;28;20037;-65
2022/08/08 11:46:52;;;;;;;2.55;1.05;;;;;;;24.86;39.69;102485.09;5047015;28;20071;-68
2022/08/08 11:49:17;;;;;;;2.30;1.13;;;;;;;24.54;41.00;102494.97;5045842;28;20322;-65
2022/08/08 11:51:43;;;;;;;3.10;1.20;;;;;;;24.53;41.17;102486.78;5047775;28;20063;-69
2022/08/08 11:54:09;;;;;;;3.85;1.17;;;;;;;25.01;40.87;102483.44;5047730;28;20029;-67
2022/08/08 11:56:34;;;;;;;2.90;1.23;;;;;;;25.43;41.27;102489.06;5045225;28;20114;-66
2022/08/08 11:59:08;;;;;;;2.00;1.17;;;;;;;25.88;39.70;102476.66;5041042;28;20044;-65
2022/08/08 12:01:34;;;;;;;1.90;0.95;;;;;;;26.51;39.07;102489.06;5028709;28;20034;-67